createdAt,value
2023-12-21T00:00:56.879Z,8.50
2023-12-21T00:03:27.371Z,8.75
2023-12-21T00:05:54.735Z,9.83
2023-12-21T00:08:22.109Z,9.57
2023-12-21T00:10:49.605Z,9.93
2023-12-21T00:13:16.931Z,9.83
2023-12-21T00:15:44.513Z,10.10
2023-12-21T00:18:11.868Z,9.83
2023-12-21T00:20:39.266Z,9.47
2023-12-21T00:23:06.593Z,10.10
2023-12-21T00:25:34.073Z,10.60
2023-12-21T00:28:01.402Z,11.20
2023-12-21T00:30:28.902Z,10.27
2023-12-21T00:32:56.367Z,11.60
2023-12-21T00:35:23.688Z,10.27
2023-12-21T00:37:51.090Z,10.63
2023-12-21T00:40:18.562Z,9.63
2023-12-21T00:42:45.806Z,10.53
2023-12-21T00:45:13.289Z,10.77
2023-12-21T00:47:40.632Z,11.07
2023-12-21T00:50:08.329Z,10.60
2023-12-21T00:52:35.651Z,10.57
2023-12-21T00:55:03.204Z,11.87
2023-12-21T00:57:30.642Z,11.33
2023-12-21T01:00:01.460Z,11.57
2023-12-21T01:02:28.720Z,10.20
2023-12-21T01:04:56.130Z,9.93
2023-12-21T01:07:23.437Z,10.90
2023-12-21T01:09:50.723Z,10.37
2023-12-21T01:12:18.008Z,11.63
2023-12-21T01:14:45.354Z,10.43
2023-12-21T01:17:12.649Z,10.50
2023-12-21T01:19:40.100Z,9.03
2023-12-21T01:22:07.546Z,9.17
2023-12-21T01:24:34.884Z,9.77
2023-12-21T01:27:02.108Z,8.63
2023-12-21T01:29:29.443Z,9.60
2023-12-21T01:31:56.733Z,9.77
2023-12-21T01:34:24.225Z,9.73
2023-12-21T01:36:51.497Z,9.90
2023-12-21T01:39:21.761Z,9.27
2023-12-21T01:41:50.950Z,10.47
2023-12-21T01:44:19.357Z,10.37
2023-12-21T01:46:47.856Z,8.40
2023-12-21T01:49:16.625Z,9.33
2023-12-21T01:51:45.360Z,9.70
2023-12-21T01:54:14.383Z,9.43
2023-12-21T01:56:42.109Z,8.50
2023-12-21T01:59:09.657Z,7.43
2023-12-21T02:01:37.542Z,8.57
2023-12-21T02:04:05.531Z,8.10
2023-12-21T02:06:33.376Z,7.63
2023-12-21T02:09:01.084Z,8.60
2023-12-21T02:11:28.696Z,7.77
2023-12-21T02:13:56.230Z,7.73
2023-12-21T02:16:27.599Z,7.73
2023-12-21T02:18:55.850Z,7.93
2023-12-21T02:21:24.217Z,8.13
2023-12-21T02:23:53.797Z,7.90
2023-12-21T02:26:22.285Z,7.23
2023-12-21T02:28:58.972Z,7.87
2023-12-21T02:31:29.475Z,7.37
2023-12-21T02:33:57.615Z,6.67
2023-12-21T02:36:25.885Z,7.00
2023-12-21T02:38:53.862Z,6.23
2023-12-21T02:41:21.921Z,5.97
2023-12-21T02:43:49.936Z,7.13
2023-12-21T02:46:18.238Z,6.77
2023-12-21T02:48:46.312Z,7.10
2023-12-21T02:51:14.897Z,7.17
2023-12-21T02:53:42.934Z,7.13
2023-12-21T02:56:11.199Z,6.53
2023-12-21T02:58:39.375Z,7.73
2023-12-21T03:01:07.839Z,7.23
2023-12-21T03:03:36.612Z,7.60
2023-12-21T03:06:04.940Z,7.47
2023-12-21T03:08:33.010Z,7.30
2023-12-21T03:11:00.790Z,7.20
2023-12-21T03:13:28.026Z,6.60
2023-12-21T03:15:55.273Z,6.57
2023-12-21T03:18:23.322Z,6.10
2023-12-21T03:20:50.491Z,6.03
2023-12-21T03:23:17.816Z,6.03
2023-12-21T03:25:45.093Z,6.30
2023-12-21T03:28:13.041Z,6.27
2023-12-21T03:30:40.920Z,5.60
2023-12-21T03:33:08.822Z,5.57
2023-12-21T03:35:37.150Z,5.77
2023-12-21T03:38:05.365Z,6.17
2023-12-21T03:40:33.967Z,6.53
2023-12-21T03:43:01.239Z,5.70
2023-12-21T03:45:28.508Z,7.23
2023-12-21T03:47:55.916Z,5.80
2023-12-21T03:50:23.215Z,5.67
2023-12-21T03:52:50.708Z,5.80
2023-12-21T03:55:18.102Z,5.53
2023-12-21T03:57:45.444Z,5.47
2023-12-21T04:00:13.052Z,4.57
2023-12-21T04:02:40.440Z,4.57
2023-12-21T04:05:07.816Z,4.63
2023-12-21T04:07:35.209Z,4.43
2023-12-21T04:10:02.733Z,4.77
2023-12-21T04:12:30.170Z,4.07
2023-12-21T04:14:57.452Z,3.47
2023-12-21T04:17:24.909Z,4.67
2023-12-21T04:19:52.577Z,3.70
2023-12-21T04:22:20.001Z,4.13
2023-12-21T04:24:47.290Z,3.70
2023-12-21T04:27:14.649Z,4.07
2023-12-21T04:29:41.905Z,4.27
2023-12-21T04:32:09.248Z,4.50
2023-12-21T04:34:37.132Z,3.70
2023-12-21T04:37:04.746Z,4.10
2023-12-21T04:39:32.061Z,3.13
2023-12-21T04:41:59.683Z,3.73
2023-12-21T04:44:26.916Z,4.43
2023-12-21T04:46:54.188Z,4.70
2023-12-21T04:49:21.591Z,4.10
2023-12-21T04:51:49.212Z,3.70
2023-12-21T04:54:16.442Z,3.67
2023-12-21T04:56:44.036Z,3.60
2023-12-21T04:59:11.415Z,3.97
2023-12-21T05:01:38.717Z,3.80
2023-12-21T05:04:06.743Z,3.73
2023-12-21T05:06:34.046Z,3.67
2023-12-21T05:09:01.331Z,4.63
2023-12-21T05:11:28.794Z,3.77
2023-12-21T05:13:56.304Z,4.50
2023-12-21T05:16:23.932Z,4.57
2023-12-21T05:18:51.630Z,4.33
2023-12-21T05:21:19.044Z,4.33
2023-12-21T05:23:46.304Z,5.40
2023-12-21T05:26:14.650Z,4.97
2023-12-21T05:28:42.253Z,5.47
2023-12-21T05:31:10.205Z,5.77
2023-12-21T05:33:37.526Z,5.83
2023-12-21T05:36:05.082Z,5.07
2023-12-21T05:38:32.331Z,5.73
2023-12-21T05:40:59.645Z,4.03
2023-12-21T05:43:26.941Z,4.83
2023-12-21T05:45:54.286Z,5.50
2023-12-21T05:48:21.698Z,6.07
2023-12-21T05:50:49.074Z,4.70
2023-12-21T05:53:16.367Z,5.07
2023-12-21T05:55:43.771Z,5.80
2023-12-21T05:58:12.439Z,5.53
2023-12-21T06:00:39.925Z,5.07
2023-12-21T06:03:07.230Z,5.23
2023-12-21T06:05:34.545Z,5.47
2023-12-21T06:08:02.359Z,5.70
2023-12-21T06:10:29.935Z,5.97
2023-12-21T06:12:57.262Z,5.13
2023-12-21T06:15:24.662Z,5.97
2023-12-21T06:17:52.172Z,6.33
2023-12-21T06:20:19.545Z,5.53
2023-12-21T06:22:47.308Z,6.33
2023-12-21T06:25:14.909Z,5.93
2023-12-21T06:27:42.371Z,7.30
2023-12-21T06:30:10.031Z,6.40
2023-12-21T06:32:37.333Z,6.93
2023-12-21T06:35:05.230Z,6.87
2023-12-21T06:37:35.296Z,7.20
2023-12-21T06:40:02.728Z,7.03
2023-12-21T06:42:30.030Z,6.80
2023-12-21T06:44:57.343Z,7.60
2023-12-21T06:47:24.644Z,8.27
2023-12-21T06:49:52.103Z,9.10
2023-12-21T06:52:19.390Z,10.00
2023-12-21T06:54:46.703Z,8.50
2023-12-21T06:57:13.920Z,8.20
2023-12-21T06:59:41.221Z,6.83
2023-12-21T07:02:08.580Z,7.60
2023-12-21T07:04:35.995Z,7.20
2023-12-21T07:07:03.754Z,7.10
2023-12-21T07:09:31.108Z,5.80
2023-12-21T07:11:58.424Z,6.47
2023-12-21T07:14:25.751Z,5.83
2023-12-21T07:16:53.018Z,5.53
2023-12-21T07:19:20.362Z,5.43
2023-12-21T07:21:47.646Z,5.53
2023-12-21T07:24:15.042Z,6.30
2023-12-21T07:26:42.263Z,6.97
2023-12-21T07:29:09.561Z,6.27
2023-12-21T07:31:37.000Z,6.57
2023-12-21T07:34:04.418Z,5.90
2023-12-21T07:36:31.718Z,6.27
2023-12-21T07:38:59.103Z,7.43
2023-12-21T07:41:26.438Z,6.70
2023-12-21T07:43:53.754Z,6.77
2023-12-21T07:46:21.208Z,7.30
2023-12-21T07:48:48.616Z,7.53
2023-12-21T07:51:15.909Z,7.07
2023-12-21T07:53:43.346Z,7.20
2023-12-21T07:56:10.848Z,7.00
2023-12-21T07:58:38.459Z,6.57
2023-12-21T08:01:05.862Z,6.30
2023-12-21T08:03:33.331Z,5.60
2023-12-21T08:06:00.656Z,6.23
2023-12-21T08:08:27.912Z,6.83
2023-12-21T08:10:55.201Z,5.90
2023-12-21T08:13:22.585Z,5.73
2023-12-21T08:15:49.941Z,5.57
2023-12-21T08:18:17.467Z,6.10
2023-12-21T08:20:44.776Z,5.93
2023-12-21T08:23:12.161Z,5.93
2023-12-21T08:25:39.479Z,6.63
2023-12-21T08:28:06.990Z,6.33
2023-12-21T08:30:34.378Z,6.07
2023-12-21T08:33:01.773Z,6.10
2023-12-21T08:35:29.091Z,5.53
2023-12-21T08:37:56.402Z,6.03
2023-12-21T08:40:23.753Z,6.23
2023-12-21T08:42:51.089Z,6.30
2023-12-21T08:45:18.369Z,4.80
2023-12-21T08:47:45.804Z,5.33
2023-12-21T08:50:13.344Z,5.23
2023-12-21T08:52:40.962Z,4.10
2023-12-21T08:55:09.178Z,4.80
2023-12-21T08:57:37.270Z,4.30
2023-12-21T09:00:09.214Z,3.63
2023-12-21T09:02:38.053Z,4.53
2023-12-21T09:05:06.636Z,2.77
2023-12-21T09:07:35.010Z,3.13
2023-12-21T09:10:02.453Z,3.50
2023-12-21T09:12:29.735Z,3.40
2023-12-21T09:14:57.113Z,2.40
2023-12-21T09:17:24.753Z,2.80
2023-12-21T09:19:52.035Z,3.20
2023-12-21T09:22:19.535Z,2.93
2023-12-21T09:24:46.907Z,3.00
2023-12-21T09:27:14.296Z,2.53
2023-12-21T09:29:41.777Z,3.03
2023-12-21T09:32:09.394Z,2.73
2023-12-21T09:34:36.924Z,2.37
2023-12-21T09:37:04.497Z,2.87
2023-12-21T09:39:31.956Z,2.07
2023-12-21T09:42:03.583Z,2.33
2023-12-21T09:44:32.203Z,2.47
2023-12-21T09:47:01.472Z,2.40
2023-12-21T09:49:30.772Z,2.23
2023-12-21T09:51:58.924Z,2.50
2023-12-21T09:54:26.368Z,2.23
2023-12-21T09:56:54.265Z,2.10
2023-12-21T09:59:22.695Z,2.40
2023-12-21T10:01:50.074Z,2.20
2023-12-21T10:04:17.508Z,1.93
2023-12-21T10:06:44.904Z,2.00
2023-12-21T10:09:12.185Z,1.63
2023-12-21T10:11:39.481Z,1.70
2023-12-21T10:14:16.849Z,1.60
2023-12-21T10:16:44.683Z,1.87
2023-12-21T10:19:15.125Z,1.83
2023-12-21T10:21:42.933Z,2.43
2023-12-21T10:24:10.959Z,2.33
2023-12-21T10:26:48.429Z,2.73
2023-12-21T10:29:18.717Z,2.80
2023-12-21T10:31:46.837Z,2.70
2023-12-21T10:34:14.614Z,2.90
2023-12-21T10:36:42.737Z,3.40
2023-12-21T10:39:11.512Z,3.63
2023-12-21T10:41:41.893Z,3.47
2023-12-21T10:44:09.547Z,3.73
2023-12-21T10:46:38.947Z,3.90
2023-12-21T10:49:06.942Z,4.23
2023-12-21T10:51:34.662Z,3.93
2023-12-21T10:54:02.471Z,4.37
2023-12-21T10:56:30.626Z,5.00
2023-12-21T10:58:59.103Z,4.90
2023-12-21T11:01:27.732Z,5.70
2023-12-21T11:03:55.854Z,4.60
2023-12-21T11:06:23.513Z,5.17
2023-12-21T11:08:51.203Z,5.40
2023-12-21T11:11:18.883Z,5.00
2023-12-21T11:13:46.558Z,5.67
2023-12-21T11:16:15.921Z,5.07
2023-12-21T11:18:45.909Z,4.17
2023-12-21T11:21:14.011Z,4.53
2023-12-21T11:23:43.337Z,3.63
2023-12-21T11:26:11.638Z,3.40
2023-12-21T11:28:40.259Z,3.77
2023-12-21T11:31:17.380Z,3.60
2023-12-21T11:33:45.326Z,3.47
2023-12-21T11:36:23.509Z,3.30
2023-12-21T11:38:53.186Z,3.33
2023-12-21T11:41:25.406Z,2.80
2023-12-21T11:44:13.685Z,3.03
2023-12-21T11:46:42.262Z,2.40
2023-12-21T11:49:24.875Z,2.53
2023-12-21T11:51:52.644Z,2.20
2023-12-21T11:54:24.434Z,1.73
2023-12-21T11:56:53.558Z,1.80
2023-12-21T11:59:24.583Z,2.30
2023-12-21T12:01:52.643Z,2.13
2023-12-21T12:04:20.105Z,2.20
2023-12-21T12:06:48.277Z,1.70
2023-12-21T12:09:17.401Z,1.87
2023-12-21T12:11:45.470Z,1.90
2023-12-21T12:14:12.781Z,1.30
2023-12-21T12:16:40.102Z,1.80
2023-12-21T12:19:11.036Z,1.90
2023-12-21T12:21:38.477Z,1.67
2023-12-21T12:24:07.346Z,1.17
2023-12-21T12:26:34.765Z,1.47
2023-12-21T12:29:02.516Z,1.57
2023-12-21T12:31:30.153Z,1.20
2023-12-21T12:33:57.688Z,1.30
2023-12-21T12:36:25.093Z,1.20
2023-12-21T12:38:55.662Z,1.13
2023-12-21T12:41:25.411Z,0.90
2023-12-21T12:43:53.050Z,1.17
2023-12-21T12:46:20.654Z,1.10
2023-12-21T12:48:48.365Z,1.23
2023-12-21T12:51:16.195Z,1.40
2023-12-21T12:53:43.989Z,1.23
2023-12-21T12:56:14.496Z,1.20
2023-12-21T12:58:52.517Z,1.03
2023-12-21T13:01:27.643Z,1.57
2023-12-21T13:03:56.520Z,1.67
2023-12-21T13:06:23.945Z,1.00
2023-12-21T13:08:51.384Z,1.20
2023-12-21T13:11:18.695Z,0.93
2023-12-21T13:13:46.216Z,1.17
2023-12-21T13:16:15.785Z,1.53
2023-12-21T13:18:43.203Z,1.17
2023-12-21T13:21:10.489Z,0.90
2023-12-21T13:23:37.840Z,1.47
2023-12-21T13:26:05.987Z,1.47
2023-12-21T13:28:33.486Z,1.20
2023-12-21T13:31:01.409Z,1.00
2023-12-21T13:33:28.846Z,1.10
2023-12-21T13:35:56.308Z,1.10
2023-12-21T13:38:23.749Z,0.90
2023-12-21T13:40:51.061Z,0.90
2023-12-21T13:43:18.420Z,1.00
2023-12-21T13:45:45.984Z,1.10
2023-12-21T13:48:13.515Z,1.00
2023-12-21T13:50:40.817Z,1.53
2023-12-21T13:53:08.154Z,1.00
2023-12-21T13:55:35.398Z,1.13
2023-12-21T13:58:02.834Z,1.20
2023-12-21T14:00:30.825Z,1.20
2023-12-21T14:02:58.745Z,1.30
2023-12-21T14:05:26.194Z,1.40
2023-12-21T14:07:54.086Z,1.70
2023-12-21T14:10:21.639Z,1.03
2023-12-21T14:12:49.811Z,1.57
2023-12-21T14:15:17.185Z,1.50
2023-12-21T14:17:44.665Z,1.50
2023-12-21T14:20:11.986Z,1.73
2023-12-21T14:22:39.374Z,1.30
2023-12-21T14:25:07.000Z,1.20
2023-12-21T14:27:34.327Z,1.70
2023-12-21T14:30:01.633Z,0.87
2023-12-21T14:32:31.048Z,1.43
2023-12-21T14:34:58.519Z,1.70
2023-12-21T14:37:27.037Z,1.27
2023-12-21T14:39:54.480Z,1.30
2023-12-21T14:42:21.916Z,1.50
2023-12-21T14:44:51.442Z,1.63
2023-12-21T14:47:18.913Z,1.57
2023-12-21T14:49:48.624Z,1.97
2023-12-21T14:52:16.020Z,2.40
2023-12-21T14:54:43.350Z,1.70
2023-12-21T14:57:10.616Z,1.70
2023-12-21T14:59:37.886Z,1.67
2023-12-21T15:02:05.200Z,1.90
2023-12-21T15:04:32.908Z,1.83
2023-12-21T15:07:00.173Z,2.37
2023-12-21T15:09:28.732Z,2.40
2023-12-21T15:11:55.977Z,2.00
2023-12-21T15:14:23.312Z,2.50
2023-12-21T15:16:50.606Z,1.83
2023-12-21T15:19:18.073Z,2.20
2023-12-21T15:21:45.364Z,2.30
2023-12-21T15:24:12.880Z,2.10
2023-12-21T15:26:40.140Z,2.40
2023-12-21T15:29:07.510Z,2.23
2023-12-21T15:31:34.913Z,2.07
2023-12-21T15:34:02.323Z,2.30
2023-12-21T15:36:29.546Z,1.73
2023-12-21T15:38:59.077Z,2.40
2023-12-21T15:41:26.371Z,2.40
2023-12-21T15:43:54.053Z,2.37
2023-12-21T15:46:21.680Z,2.43
2023-12-21T15:48:48.982Z,2.07
2023-12-21T15:51:16.707Z,2.20
2023-12-21T15:53:43.986Z,2.60
2023-12-21T15:56:12.740Z,2.27
2023-12-21T15:58:40.053Z,2.23
2023-12-21T16:01:07.466Z,2.70
2023-12-21T16:03:34.815Z,3.20
2023-12-21T16:06:02.293Z,3.57
2023-12-21T16:08:29.649Z,2.40
2023-12-21T16:10:57.039Z,2.20
2023-12-21T16:13:24.293Z,2.53
2023-12-21T16:15:51.686Z,2.00
2023-12-21T16:18:19.015Z,2.00
2023-12-21T16:20:46.347Z,2.13
2023-12-21T16:23:13.627Z,2.10
2023-12-21T16:25:41.473Z,2.40
2023-12-21T16:28:09.590Z,2.73
2023-12-21T16:30:37.212Z,1.93
2023-12-21T16:33:04.928Z,2.20
2023-12-21T16:35:34.410Z,3.00
2023-12-21T16:38:03.274Z,3.10
2023-12-21T16:40:30.598Z,3.77
2023-12-21T16:42:57.856Z,2.93
2023-12-21T16:45:25.477Z,3.30
2023-12-21T16:47:52.759Z,2.10
2023-12-21T16:50:20.256Z,3.03
2023-12-21T16:52:47.894Z,2.33
2023-12-21T16:55:15.449Z,3.10
2023-12-21T16:57:42.696Z,2.90
2023-12-21T17:00:10.544Z,2.97
2023-12-21T17:02:38.469Z,3.73
2023-12-21T17:05:06.318Z,4.10
2023-12-21T17:07:33.649Z,3.73
2023-12-21T17:10:00.991Z,3.47
2023-12-21T17:12:28.206Z,3.33
2023-12-21T17:14:55.556Z,3.70
2023-12-21T17:17:22.832Z,3.57
2023-12-21T17:19:50.223Z,4.37
2023-12-21T17:22:17.542Z,3.70
2023-12-21T17:24:44.962Z,4.20
2023-12-21T17:27:12.227Z,3.90
2023-12-21T17:29:39.545Z,3.73
2023-12-21T17:32:06.926Z,3.10
2023-12-21T17:34:34.361Z,2.93
2023-12-21T17:37:01.739Z,2.00
2023-12-21T17:39:29.190Z,2.80
2023-12-21T17:41:56.526Z,2.93
2023-12-21T17:44:23.830Z,2.67
2023-12-21T17:46:51.171Z,3.53
2023-12-21T17:49:18.657Z,2.90
2023-12-21T17:51:46.025Z,2.73
2023-12-21T17:54:13.409Z,2.53
2023-12-21T17:56:40.646Z,2.57
2023-12-21T17:59:08.012Z,3.30
2023-12-21T18:01:35.360Z,3.70
2023-12-21T18:04:02.828Z,3.27
2023-12-21T18:06:30.233Z,3.70
2023-12-21T18:08:57.540Z,3.63
2023-12-21T18:11:24.922Z,4.20
2023-12-21T18:13:55.602Z,6.60
2023-12-21T18:16:23.344Z,2.00
2023-12-21T18:18:51.129Z,1.70
2023-12-21T18:21:18.792Z,1.00
2023-12-21T18:23:46.298Z,1.40
2023-12-21T18:26:13.909Z,2.10
2023-12-21T18:28:41.516Z,1.30
2023-12-21T18:31:09.173Z,1.53
2023-12-21T18:33:36.811Z,1.40
2023-12-21T18:36:04.513Z,1.80
2023-12-21T18:38:32.193Z,2.17
2023-12-21T18:40:59.936Z,1.90
2023-12-21T18:43:27.607Z,2.67
2023-12-21T18:45:55.226Z,2.50
2023-12-21T18:48:22.876Z,2.10
2023-12-21T18:50:50.549Z,2.57
2023-12-21T18:53:18.288Z,2.40
2023-12-21T18:55:47.167Z,2.67
2023-12-21T18:58:14.808Z,2.40
2023-12-21T19:00:42.489Z,2.50
2023-12-21T19:03:11.368Z,2.53
2023-12-21T19:05:39.426Z,3.67
2023-12-21T19:08:07.241Z,2.30
2023-12-21T19:10:34.854Z,3.20
2023-12-21T19:13:02.424Z,2.20
2023-12-21T19:15:30.058Z,3.10
2023-12-21T19:17:57.805Z,2.40
2023-12-21T19:20:25.634Z,3.40
2023-12-21T19:22:53.215Z,2.67
2023-12-21T19:25:21.051Z,2.80
2023-12-21T19:27:48.875Z,3.20
2023-12-21T19:30:16.776Z,2.63
2023-12-21T19:32:44.376Z,3.13
2023-12-21T19:35:12.074Z,2.67
2023-12-21T19:37:39.717Z,2.70
2023-12-21T19:40:07.693Z,2.50
2023-12-21T19:42:35.299Z,3.13
2023-12-21T19:45:03.881Z,3.83
2023-12-21T19:47:31.421Z,2.00
2023-12-21T19:49:59.089Z,3.53
2023-12-21T19:52:26.749Z,3.10
2023-12-21T19:54:54.497Z,2.77
2023-12-21T19:57:22.143Z,3.43
2023-12-21T19:59:49.745Z,3.10
2023-12-21T20:02:17.728Z,2.73
2023-12-21T20:04:45.510Z,2.20
2023-12-21T20:07:13.264Z,2.83
2023-12-21T20:09:40.914Z,3.27
2023-12-21T20:12:08.726Z,2.70
2023-12-21T20:14:36.704Z,2.73
2023-12-21T20:17:04.370Z,2.90
2023-12-21T20:19:32.286Z,3.00
2023-12-21T20:22:00.069Z,2.17
2023-12-21T20:24:27.720Z,2.70
2023-12-21T20:26:55.355Z,3.67
2023-12-21T20:29:22.952Z,3.10
2023-12-21T20:31:50.708Z,3.03
2023-12-21T20:34:18.524Z,2.53
2023-12-21T20:36:46.142Z,3.40
2023-12-21T20:39:13.748Z,2.70
2023-12-21T20:41:41.331Z,2.73
2023-12-21T20:44:08.940Z,2.77
2023-12-21T20:46:36.538Z,3.37
2023-12-21T20:49:04.263Z,2.53
2023-12-21T20:51:32.972Z,3.33
2023-12-21T20:54:00.629Z,2.87
2023-12-21T20:56:31.267Z,3.40
2023-12-21T20:58:58.937Z,3.37
2023-12-21T21:01:26.615Z,2.60
2023-12-21T21:03:54.284Z,3.30
2023-12-21T21:06:21.837Z,3.33
2023-12-21T21:08:49.457Z,2.60
2023-12-21T21:11:17.066Z,3.93
2023-12-21T21:13:44.707Z,3.40
2023-12-21T21:16:12.320Z,3.37
2023-12-21T21:18:40.097Z,3.27
2023-12-21T21:21:08.315Z,3.23
2023-12-21T21:23:35.917Z,3.40
2023-12-21T21:26:03.532Z,2.60
2023-12-21T21:28:31.258Z,2.63
2023-12-21T21:31:01.037Z,2.67
2023-12-21T21:33:29.357Z,2.60
2023-12-21T21:35:56.967Z,2.63
2023-12-21T21:38:24.573Z,3.10
2023-12-21T21:40:52.247Z,3.40
2023-12-21T21:43:19.988Z,2.67
2023-12-21T21:45:47.693Z,2.77
2023-12-21T21:48:15.309Z,2.57
2023-12-21T21:50:42.918Z,2.70
2023-12-21T21:53:10.514Z,3.30
2023-12-21T21:55:38.104Z,3.53
2023-12-21T21:58:05.708Z,2.83
2023-12-21T22:00:33.254Z,2.63
2023-12-21T22:03:00.965Z,2.77
2023-12-21T22:05:28.704Z,2.60
2023-12-21T22:07:56.725Z,2.83
2023-12-21T22:10:24.501Z,1.90
2023-12-21T22:12:52.155Z,2.50
2023-12-21T22:15:19.755Z,2.23
2023-12-21T22:17:47.670Z,2.33
2023-12-21T22:20:15.530Z,2.40
2023-12-21T22:22:45.560Z,2.33
2023-12-21T22:25:14.573Z,2.30
2023-12-21T22:27:42.204Z,2.50
2023-12-21T22:30:10.142Z,2.50
2023-12-21T22:32:37.810Z,2.00
2023-12-21T22:35:05.601Z,2.63
2023-12-21T22:37:33.304Z,2.73
2023-12-21T22:40:01.200Z,2.50
2023-12-21T22:42:28.902Z,2.40
2023-12-21T22:44:57.017Z,2.63
2023-12-21T22:47:24.704Z,3.27
2023-12-21T22:49:53.172Z,2.33
2023-12-21T22:52:21.024Z,1.93
2023-12-21T22:54:48.755Z,1.53
2023-12-21T22:57:16.515Z,1.70
2023-12-21T22:59:44.566Z,2.90
2023-12-21T23:02:12.387Z,1.93
2023-12-21T23:04:40.061Z,2.20
2023-12-21T23:07:09.268Z,1.40
2023-12-21T23:09:37.277Z,2.27
2023-12-21T23:12:05.097Z,1.67
2023-12-21T23:14:32.695Z,1.10
2023-12-21T23:17:00.377Z,1.57
2023-12-21T23:19:28.143Z,1.70
2023-12-21T23:21:55.807Z,1.60
2023-12-21T23:24:23.664Z,1.30
2023-12-21T23:26:51.526Z,1.97
2023-12-21T23:29:19.171Z,1.87
2023-12-21T23:31:46.913Z,2.13
2023-12-21T23:34:14.618Z,1.83
2023-12-21T23:36:42.509Z,2.00
2023-12-21T23:39:10.253Z,2.40
2023-12-21T23:41:37.757Z,2.57
2023-12-21T23:44:05.531Z,1.97
2023-12-21T23:46:33.335Z,2.97
2023-12-21T23:49:01.255Z,3.73
2023-12-21T23:51:29.077Z,1.80
2023-12-21T23:53:56.735Z,1.87
2023-12-21T23:56:24.326Z,2.10
2023-12-21T23:58:51.997Z,2.40
